sensor_id;sensor_type;location;lat;lon;timestamp;P1;durP1;ratioP1;P2;durP2;ratioP2
11827;SDS011;5971;49.646;8.568;2024-03-02T00:02:09;16.55;;;8.30;;
11827;SDS011;5971;49.646;8.568;2024-03-02T00:05:11;17.00;;;9.45;;
11827;SDS011;5971;49.646;8.568;2024-03-02T00:08:12;17.98;;;8.93;;
11827;SDS011;5971;49.646;8.568;2024-03-02T00:11:15;18.23;;;9.20;;
11827;SDS011;5971;49.646;8.568;2024-03-02T00:14:17;19.05;;;8.65;;
11827;SDS011;5971;49.646;8.568;2024-03-02T00:17:21;18.88;;;9.25;;
11827;SDS011;5971;49.646;8.568;2024-03-02T00:20:25;17.98;;;8.50;;
11827;SDS011;5971;49.646;8.568;2024-03-02T00:23:30;14.43;;;7.78;;
11827;SDS011;5971;49.646;8.568;2024-03-02T00:26:32;17.23;;;8.60;;
11827;SDS011;5971;49.646;8.568;2024-03-02T00:29:34;15.07;;;8.23;;
11827;SDS011;5971;49.646;8.568;2024-03-02T00:32:35;17.45;;;8.07;;
11827;SDS011;5971;49.646;8.568;2024-03-02T00:35:37;18.40;;;7.88;;
11827;SDS011;5971;49.646;8.568;2024-03-02T00:38:45;16.67;;;8.23;;
11827;SDS011;5971;49.646;8.568;2024-03-02T00:41:47;17.15;;;8.07;;
11827;SDS011;5971;49.646;8.568;2024-03-02T00:44:48;15.98;;;8.20;;
11827;SDS011;5971;49.646;8.568;2024-03-02T00:47:50;17.17;;;8.02;;
11827;SDS011;5971;49.646;8.568;2024-03-02T00:50:52;20.65;;;8.80;;
11827;SDS011;5971;49.646;8.568;2024-03-02T00:53:54;17.50;;;8.60;;
11827;SDS011;5971;49.646;8.568;2024-03-02T00:56:58;16.23;;;8.38;;
11827;SDS011;5971;49.646;8.568;2024-03-02T01:00:00;17.42;;;7.35;;
11827;SDS011;5971;49.646;8.568;2024-03-02T01:03:02;17.33;;;7.45;;
11827;SDS011;5971;49.646;8.568;2024-03-02T01:06:03;15.02;;;8.13;;
11827;SDS011;5971;49.646;8.568;2024-03-02T01:09:05;14.25;;;7.03;;
11827;SDS011;5971;49.646;8.568;2024-03-02T01:12:06;15.52;;;7.68;;
11827;SDS011;5971;49.646;8.568;2024-03-02T01:15:08;17.40;;;8.45;;
11827;SDS011;5971;49.646;8.568;2024-03-02T01:18:09;16.42;;;7.50;;
11827;SDS011;5971;49.646;8.568;2024-03-02T01:21:11;17.63;;;7.88;;
11827;SDS011;5971;49.646;8.568;2024-03-02T01:24:12;16.65;;;7.68;;
11827;SDS011;5971;49.646;8.568;2024-03-02T01:27:14;16.17;;;8.30;;
11827;SDS011;5971;49.646;8.568;2024-03-02T01:30:16;15.85;;;7.60;;
11827;SDS011;5971;49.646;8.568;2024-03-02T01:33:20;15.98;;;7.50;;
11827;SDS011;5971;49.646;8.568;2024-03-02T01:36:22;13.75;;;6.97;;
11827;SDS011;5971;49.646;8.568;2024-03-02T01:39:24;13.98;;;6.90;;
11827;SDS011;5971;49.646;8.568;2024-03-02T01:42:25;17.77;;;7.93;;
11827;SDS011;5971;49.646;8.568;2024-03-02T01:45:28;14.02;;;7.53;;
11827;SDS011;5971;49.646;8.568;2024-03-02T01:48:30;13.60;;;6.43;;
11827;SDS011;5971;49.646;8.568;2024-03-02T01:51:31;16.52;;;6.72;;
11827;SDS011;5971;49.646;8.568;2024-03-02T01:54:33;16.35;;;7.05;;
11827;SDS011;5971;49.646;8.568;2024-03-02T01:57:34;16.70;;;6.60;;
11827;SDS011;5971;49.646;8.568;2024-03-02T02:00:35;14.88;;;7.18;;
11827;SDS011;5971;49.646;8.568;2024-03-02T02:03:38;14.98;;;7.07;;
11827;SDS011;5971;49.646;8.568;2024-03-02T02:06:39;15.40;;;8.18;;
11827;SDS011;5971;49.646;8.568;2024-03-02T02:09:41;13.25;;;6.03;;
11827;SDS011;5971;49.646;8.568;2024-03-02T02:12:43;16.20;;;7.07;;
11827;SDS011;5971;49.646;8.568;2024-03-02T02:15:44;16.60;;;6.65;;
11827;SDS011;5971;49.646;8.568;2024-03-02T02:18:46;16.23;;;7.55;;
11827;SDS011;5971;49.646;8.568;2024-03-02T02:21:47;16.05;;;7.47;;
11827;SDS011;5971;49.646;8.568;2024-03-02T02:24:48;16.58;;;7.38;;
11827;SDS011;5971;49.646;8.568;2024-03-02T02:27:50;15.82;;;7.63;;
11827;SDS011;5971;49.646;8.568;2024-03-02T02:30:52;14.93;;;8.13;;
11827;SDS011;5971;49.646;8.568;2024-03-02T02:33:53;16.23;;;7.65;;
11827;SDS011;5971;49.646;8.568;2024-03-02T02:36:54;17.83;;;7.05;;
11827;SDS011;5971;49.646;8.568;2024-03-02T02:39:56;14.50;;;7.07;;
11827;SDS011;5971;49.646;8.568;2024-03-02T02:42:58;16.85;;;7.25;;
11827;SDS011;5971;49.646;8.568;2024-03-02T02:46:00;16.08;;;7.32;;
11827;SDS011;5971;49.646;8.568;2024-03-02T02:49:02;17.42;;;9.73;;
11827;SDS011;5971;49.646;8.568;2024-03-02T02:52:03;15.85;;;7.35;;
11827;SDS011;5971;49.646;8.568;2024-03-02T02:55:05;15.18;;;7.47;;
11827;SDS011;5971;49.646;8.568;2024-03-02T02:58:07;18.10;;;7.40;;
11827;SDS011;5971;49.646;8.568;2024-03-02T03:01:08;13.48;;;6.60;;
11827;SDS011;5971;49.646;8.568;2024-03-02T03:04:10;12.27;;;5.97;;
11827;SDS011;5971;49.646;8.568;2024-03-02T03:07:11;13.73;;;6.57;;
11827;SDS011;5971;49.646;8.568;2024-03-02T03:10:12;15.35;;;7.00;;
11827;SDS011;5971;49.646;8.568;2024-03-02T03:13:15;13.30;;;6.65;;
11827;SDS011;5971;49.646;8.568;2024-03-02T03:16:16;15.63;;;8.52;;
11827;SDS011;5971;49.646;8.568;2024-03-02T03:19:18;14.73;;;6.78;;
11827;SDS011;5971;49.646;8.568;2024-03-02T03:22:19;15.35;;;7.18;;
11827;SDS011;5971;49.646;8.568;2024-03-02T03:25:20;15.45;;;6.57;;
11827;SDS011;5971;49.646;8.568;2024-03-02T03:28:22;14.23;;;8.68;;
11827;SDS011;5971;49.646;8.568;2024-03-02T03:31:23;13.60;;;6.28;;
11827;SDS011;5971;49.646;8.568;2024-03-02T03:34:24;14.05;;;6.32;;
11827;SDS011;5971;49.646;8.568;2024-03-02T03:37:26;11.55;;;5.82;;
11827;SDS011;5971;49.646;8.568;2024-03-02T03:40:33;14.23;;;6.95;;
11827;SDS011;5971;49.646;8.568;2024-03-02T03:43:35;14.27;;;6.28;;
11827;SDS011;5971;49.646;8.568;2024-03-02T03:46:36;13.38;;;6.20;;
11827;SDS011;5971;49.646;8.568;2024-03-02T03:49:38;12.25;;;5.78;;
11827;SDS011;5971;49.646;8.568;2024-03-02T03:52:39;13.43;;;6.65;;
11827;SDS011;5971;49.646;8.568;2024-03-02T03:55:40;16.60;;;6.93;;
11827;SDS011;5971;49.646;8.568;2024-03-02T03:58:42;15.98;;;6.20;;
11827;SDS011;5971;49.646;8.568;2024-03-02T04:01:43;15.82;;;6.93;;
11827;SDS011;5971;49.646;8.568;2024-03-02T04:04:45;13.75;;;6.55;;
11827;SDS011;5971;49.646;8.568;2024-03-02T04:07:47;14.57;;;7.43;;
11827;SDS011;5971;49.646;8.568;2024-03-02T04:10:48;17.67;;;7.57;;
11827;SDS011;5971;49.646;8.568;2024-03-02T04:13:49;15.30;;;6.57;;
11827;SDS011;5971;49.646;8.568;2024-03-02T04:16:51;15.43;;;7.45;;
11827;SDS011;5971;49.646;8.568;2024-03-02T04:19:52;15.75;;;7.22;;
11827;SDS011;5971;49.646;8.568;2024-03-02T04:22:54;16.00;;;7.28;;
11827;SDS011;5971;49.646;8.568;2024-03-02T04:25:55;15.40;;;7.93;;
11827;SDS011;5971;49.646;8.568;2024-03-02T04:28:56;14.80;;;6.97;;
11827;SDS011;5971;49.646;8.568;2024-03-02T04:31:58;17.80;;;7.20;;
11827;SDS011;5971;49.646;8.568;2024-03-02T04:34:59;17.15;;;6.65;;
11827;SDS011;5971;49.646;8.568;2024-03-02T04:38:00;14.52;;;6.57;;
11827;SDS011;5971;49.646;8.568;2024-03-02T04:41:02;14.02;;;6.78;;
11827;SDS011;5971;49.646;8.568;2024-03-02T04:44:03;14.52;;;6.55;;
11827;SDS011;5971;49.646;8.568;2024-03-02T04:47:04;15.95;;;6.85;;
11827;SDS011;5971;49.646;8.568;2024-03-02T04:50:06;16.05;;;8.45;;
11827;SDS011;5971;49.646;8.568;2024-03-02T04:53:08;13.57;;;6.75;;
11827;SDS011;5971;49.646;8.568;2024-03-02T04:56:10;13.13;;;6.53;;
11827;SDS011;5971;49.646;8.568;2024-03-02T04:59:12;14.55;;;7.78;;
11827;SDS011;5971;49.646;8.568;2024-03-02T05:02:15;18.50;;;7.50;;
11827;SDS011;5971;49.646;8.568;2024-03-02T05:05:16;17.33;;;8.27;;
11827;SDS011;5971;49.646;8.568;2024-03-02T05:08:18;14.55;;;7.35;;
11827;SDS011;5971;49.646;8.568;2024-03-02T05:11:19;16.65;;;7.00;;
11827;SDS011;5971;49.646;8.568;2024-03-02T05:14:32;20.20;;;8.02;;
11827;SDS011;5971;49.646;8.568;2024-03-02T05:17:34;18.42;;;7.55;;
11827;SDS011;5971;49.646;8.568;2024-03-02T05:20:35;18.83;;;7.65;;
11827;SDS011;5971;49.646;8.568;2024-03-02T05:23:36;15.30;;;6.45;;
11827;SDS011;5971;49.646;8.568;2024-03-02T05:26:38;14.35;;;7.28;;
11827;SDS011;5971;49.646;8.568;2024-03-02T05:29:39;17.25;;;8.05;;
11827;SDS011;5971;49.646;8.568;2024-03-02T05:32:40;19.73;;;8.25;;
11827;SDS011;5971;49.646;8.568;2024-03-02T05:35:43;18.90;;;8.30;;
11827;SDS011;5971;49.646;8.568;2024-03-02T05:38:45;19.73;;;7.85;;
11827;SDS011;5971;49.646;8.568;2024-03-02T05:41:46;20.17;;;8.60;;
11827;SDS011;5971;49.646;8.568;2024-03-02T05:44:47;21.27;;;8.70;;
11827;SDS011;5971;49.646;8.568;2024-03-02T05:47:49;19.08;;;8.52;;
11827;SDS011;5971;49.646;8.568;2024-03-02T05:50:50;19.15;;;9.35;;
11827;SDS011;5971;49.646;8.568;2024-03-02T05:53:51;22.23;;;10.05;;
11827;SDS011;5971;49.646;8.568;2024-03-02T05:56:53;18.70;;;9.57;;
11827;SDS011;5971;49.646;8.568;2024-03-02T05:59:55;23.85;;;9.88;;
11827;SDS011;5971;49.646;8.568;2024-03-02T06:02:56;23.10;;;9.45;;
11827;SDS011;5971;49.646;8.568;2024-03-02T06:05:57;21.90;;;10.60;;
11827;SDS011;5971;49.646;8.568;2024-03-02T06:09:02;19.80;;;9.25;;
11827;SDS011;5971;49.646;8.568;2024-03-02T06:12:13;20.02;;;9.00;;
11827;SDS011;5971;49.646;8.568;2024-03-02T06:15:14;21.40;;;8.88;;
11827;SDS011;5971;49.646;8.568;2024-03-02T06:18:15;21.95;;;9.60;;
11827;SDS011;5971;49.646;8.568;2024-03-02T06:21:17;20.58;;;10.85;;
11827;SDS011;5971;49.646;8.568;2024-03-02T06:24:19;21.90;;;9.25;;
11827;SDS011;5971;49.646;8.568;2024-03-02T06:27:20;20.13;;;8.93;;
11827;SDS011;5971;49.646;8.568;2024-03-02T06:30:22;21.75;;;10.18;;
11827;SDS011;5971;49.646;8.568;2024-03-02T06:33:23;22.00;;;10.20;;
11827;SDS011;5971;49.646;8.568;2024-03-02T06:36:25;23.25;;;9.57;;
11827;SDS011;5971;49.646;8.568;2024-03-02T06:39:27;22.65;;;9.52;;
11827;SDS011;5971;49.646;8.568;2024-03-02T06:42:28;21.35;;;8.90;;
11827;SDS011;5971;49.646;8.568;2024-03-02T06:45:34;18.48;;;10.25;;
11827;SDS011;5971;49.646;8.568;2024-03-02T06:48:36;20.10;;;9.07;;
11827;SDS011;5971;49.646;8.568;2024-03-02T06:51:37;21.98;;;10.43;;
11827;SDS011;5971;49.646;8.568;2024-03-02T06:54:39;24.83;;;9.70;;
11827;SDS011;5971;49.646;8.568;2024-03-02T06:57:40;21.42;;;9.88;;
11827;SDS011;5971;49.646;8.568;2024-03-02T07:00:42;23.65;;;11.23;;
11827;SDS011;5971;49.646;8.568;2024-03-02T07:03:45;27.80;;;14.48;;
11827;SDS011;5971;49.646;8.568;2024-03-02T07:06:46;28.02;;;10.55;;
11827;SDS011;5971;49.646;8.568;2024-03-02T07:09:47;23.90;;;10.02;;
11827;SDS011;5971;49.646;8.568;2024-03-02T07:12:49;23.58;;;11.15;;
11827;SDS011;5971;49.646;8.568;2024-03-02T07:15:50;20.63;;;9.45;;
11827;SDS011;5971;49.646;8.568;2024-03-02T07:19:04;24.73;;;11.15;;
11827;SDS011;5971;49.646;8.568;2024-03-02T07:22:06;22.55;;;10.60;;
11827;SDS011;5971;49.646;8.568;2024-03-02T07:25:08;25.48;;;11.00;;
11827;SDS011;5971;49.646;8.568;2024-03-02T07:28:29;29.77;;;11.50;;
11827;SDS011;5971;49.646;8.568;2024-03-02T07:31:32;30.40;;;11.70;;
11827;SDS011;5971;49.646;8.568;2024-03-02T07:34:33;28.13;;;11.98;;
11827;SDS011;5971;49.646;8.568;2024-03-02T07:37:35;26.48;;;11.45;;
11827;SDS011;5971;49.646;8.568;2024-03-02T07:40:37;25.27;;;11.40;;
11827;SDS011;5971;49.646;8.568;2024-03-02T07:43:38;29.33;;;12.50;;
11827;SDS011;5971;49.646;8.568;2024-03-02T07:46:43;28.70;;;13.50;;
11827;SDS011;5971;49.646;8.568;2024-03-02T07:49:44;34.70;;;15.02;;
11827;SDS011;5971;49.646;8.568;2024-03-02T07:52:46;34.33;;;15.98;;
11827;SDS011;5971;49.646;8.568;2024-03-02T07:55:47;37.67;;;16.85;;
11827;SDS011;5971;49.646;8.568;2024-03-02T07:58:49;30.73;;;13.70;;
11827;SDS011;5971;49.646;8.568;2024-03-02T08:01:50;29.48;;;13.00;;
11827;SDS011;5971;49.646;8.568;2024-03-02T08:04:52;25.88;;;12.55;;
11827;SDS011;5971;49.646;8.568;2024-03-02T08:07:54;24.52;;;13.25;;
11827;SDS011;5971;49.646;8.568;2024-03-02T08:10:55;26.27;;;12.35;;
11827;SDS011;5971;49.646;8.568;2024-03-02T08:13:58;24.33;;;12.45;;
11827;SDS011;5971;49.646;8.568;2024-03-02T08:17:00;22.10;;;11.13;;
11827;SDS011;5971;49.646;8.568;2024-03-02T08:20:02;22.40;;;10.57;;
11827;SDS011;5971;49.646;8.568;2024-03-02T08:23:04;17.17;;;9.52;;
11827;SDS011;5971;49.646;8.568;2024-03-02T08:26:06;18.02;;;9.00;;
11827;SDS011;5971;49.646;8.568;2024-03-02T08:29:07;16.55;;;10.07;;
11827;SDS011;5971;49.646;8.568;2024-03-02T08:32:09;15.63;;;7.90;;
11827;SDS011;5971;49.646;8.568;2024-03-02T08:35:10;15.32;;;8.93;;
11827;SDS011;5971;49.646;8.568;2024-03-02T08:38:12;16.52;;;9.60;;
11827;SDS011;5971;49.646;8.568;2024-03-02T08:41:13;13.10;;;8.23;;
11827;SDS011;5971;49.646;8.568;2024-03-02T08:44:15;15.55;;;8.55;;
11827;SDS011;5971;49.646;8.568;2024-03-02T08:47:16;17.73;;;9.10;;
11827;SDS011;5971;49.646;8.568;2024-03-02T08:50:18;15.25;;;8.80;;
11827;SDS011;5971;49.646;8.568;2024-03-02T08:53:19;15.25;;;8.45;;
11827;SDS011;5971;49.646;8.568;2024-03-02T08:56:21;16.02;;;8.13;;
11827;SDS011;5971;49.646;8.568;2024-03-02T08:59:24;14.60;;;7.63;;
11827;SDS011;5971;49.646;8.568;2024-03-02T09:02:28;13.77;;;7.90;;
11827;SDS011;5971;49.646;8.568;2024-03-02T09:05:29;13.50;;;7.95;;
11827;SDS011;5971;49.646;8.568;2024-03-02T09:08:30;12.52;;;7.15;;
11827;SDS011;5971;49.646;8.568;2024-03-02T09:11:32;13.45;;;6.88;;
11827;SDS011;5971;49.646;8.568;2024-03-02T09:14:33;13.95;;;6.80;;
11827;SDS011;5971;49.646;8.568;2024-03-02T09:17:36;13.55;;;7.20;;
11827;SDS011;5971;49.646;8.568;2024-03-02T09:20:37;12.25;;;6.18;;
11827;SDS011;5971;49.646;8.568;2024-03-02T09:23:38;10.35;;;6.15;;
11827;SDS011;5971;49.646;8.568;2024-03-02T09:26:41;11.95;;;6.20;;
11827;SDS011;5971;49.646;8.568;2024-03-02T09:29:42;9.95;;;5.95;;
11827;SDS011;5971;49.646;8.568;2024-03-02T09:32:44;10.73;;;5.97;;
11827;SDS011;5971;49.646;8.568;2024-03-02T09:35:47;8.82;;;5.47;;
11827;SDS011;5971;49.646;8.568;2024-03-02T09:38:49;10.38;;;5.78;;
11827;SDS011;5971;49.646;8.568;2024-03-02T09:41:51;10.52;;;5.82;;
11827;SDS011;5971;49.646;8.568;2024-03-02T09:44:52;10.02;;;5.38;;
11827;SDS011;5971;49.646;8.568;2024-03-02T09:47:54;10.13;;;4.80;;
11827;SDS011;5971;49.646;8.568;2024-03-02T09:50:56;6.85;;;3.85;;
11827;SDS011;5971;49.646;8.568;2024-03-02T09:53:57;6.32;;;3.35;;
11827;SDS011;5971;49.646;8.568;2024-03-02T09:57:17;6.75;;;4.00;;
11827;SDS011;5971;49.646;8.568;2024-03-02T10:00:19;8.05;;;3.97;;
11827;SDS011;5971;49.646;8.568;2024-03-02T10:03:20;6.85;;;3.80;;
11827;SDS011;5971;49.646;8.568;2024-03-02T10:06:24;6.95;;;3.10;;
11827;SDS011;5971;49.646;8.568;2024-03-02T10:09:26;6.40;;;3.55;;
11827;SDS011;5971;49.646;8.568;2024-03-02T10:12:28;6.60;;;3.78;;
11827;SDS011;5971;49.646;8.568;2024-03-02T10:15:29;6.63;;;3.55;;
11827;SDS011;5971;49.646;8.568;2024-03-02T10:18:31;7.40;;;3.88;;
11827;SDS011;5971;49.646;8.568;2024-03-02T10:21:32;8.13;;;4.18;;
11827;SDS011;5971;49.646;8.568;2024-03-02T10:24:43;8.48;;;4.55;;
11827;SDS011;5971;49.646;8.568;2024-03-02T10:27:49;9.00;;;4.38;;
11827;SDS011;5971;49.646;8.568;2024-03-02T10:30:51;7.97;;;4.35;;
11827;SDS011;5971;49.646;8.568;2024-03-02T10:33:54;7.47;;;4.38;;
11827;SDS011;5971;49.646;8.568;2024-03-02T10:36:56;8.18;;;4.07;;
11827;SDS011;5971;49.646;8.568;2024-03-02T10:39:57;7.93;;;4.70;;
11827;SDS011;5971;49.646;8.568;2024-03-02T10:43:05;8.60;;;4.75;;
11827;SDS011;5971;49.646;8.568;2024-03-02T10:46:08;7.80;;;3.83;;
11827;SDS011;5971;49.646;8.568;2024-03-02T10:49:11;7.35;;;4.10;;
11827;SDS011;5971;49.646;8.568;2024-03-02T10:52:12;6.88;;;3.63;;
11827;SDS011;5971;49.646;8.568;2024-03-02T10:55:14;7.43;;;4.00;;
11827;SDS011;5971;49.646;8.568;2024-03-02T10:58:16;5.50;;;2.90;;
11827;SDS011;5971;49.646;8.568;2024-03-02T11:01:21;4.88;;;2.90;;
11827;SDS011;5971;49.646;8.568;2024-03-02T11:04:23;4.60;;;2.53;;
11827;SDS011;5971;49.646;8.568;2024-03-02T11:07:25;3.83;;;1.90;;
11827;SDS011;5971;49.646;8.568;2024-03-02T11:10:29;4.50;;;2.20;;
11827;SDS011;5971;49.646;8.568;2024-03-02T11:13:33;4.35;;;3.20;;
11827;SDS011;5971;49.646;8.568;2024-03-02T11:16:39;8.55;;;4.22;;
11827;SDS011;5971;49.646;8.568;2024-03-02T11:19:42;5.68;;;2.85;;
11827;SDS011;5971;49.646;8.568;2024-03-02T11:22:44;5.35;;;3.03;;
11827;SDS011;5971;49.646;8.568;2024-03-02T11:25:45;4.47;;;2.95;;
11827;SDS011;5971;49.646;8.568;2024-03-02T11:28:48;4.40;;;2.30;;
11827;SDS011;5971;49.646;8.568;2024-03-02T11:31:59;5.10;;;2.38;;
11827;SDS011;5971;49.646;8.568;2024-03-02T11:35:01;3.75;;;2.40;;
11827;SDS011;5971;49.646;8.568;2024-03-02T11:38:03;4.70;;;2.90;;
11827;SDS011;5971;49.646;8.568;2024-03-02T11:41:07;3.53;;;2.13;;
11827;SDS011;5971;49.646;8.568;2024-03-02T11:44:10;4.43;;;2.53;;
11827;SDS011;5971;49.646;8.568;2024-03-02T11:47:13;4.88;;;2.78;;
11827;SDS011;5971;49.646;8.568;2024-03-02T11:50:15;3.33;;;1.83;;
11827;SDS011;5971;49.646;8.568;2024-03-02T11:53:29;2.75;;;1.60;;
11827;SDS011;5971;49.646;8.568;2024-03-02T11:56:36;3.03;;;2.03;;
11827;SDS011;5971;49.646;8.568;2024-03-02T11:59:37;3.00;;;1.80;;
11827;SDS011;5971;49.646;8.568;2024-03-02T12:02:38;3.65;;;2.25;;
11827;SDS011;5971;49.646;8.568;2024-03-02T12:05:43;4.97;;;1.98;;
11827;SDS011;5971;49.646;8.568;2024-03-02T12:08:44;4.50;;;2.50;;
11827;SDS011;5971;49.646;8.568;2024-03-02T12:11:46;2.80;;;1.50;;
11827;SDS011;5971;49.646;8.568;2024-03-02T12:14:51;4.53;;;2.95;;
11827;SDS011;5971;49.646;8.568;2024-03-02T12:17:57;3.53;;;2.03;;
11827;SDS011;5971;49.646;8.568;2024-03-02T12:20:59;3.55;;;2.38;;
11827;SDS011;5971;49.646;8.568;2024-03-02T12:24:01;4.65;;;2.10;;
11827;SDS011;5971;49.646;8.568;2024-03-02T12:27:03;8.48;;;5.00;;
11827;SDS011;5971;49.646;8.568;2024-03-02T12:30:05;6.32;;;3.08;;
11827;SDS011;5971;49.646;8.568;2024-03-02T12:33:11;17.42;;;10.02;;
11827;SDS011;5971;49.646;8.568;2024-03-02T12:36:15;4.63;;;2.08;;
11827;SDS011;5971;49.646;8.568;2024-03-02T12:39:17;2.72;;;1.63;;
11827;SDS011;5971;49.646;8.568;2024-03-02T12:42:18;9.85;;;5.43;;
11827;SDS011;5971;49.646;8.568;2024-03-02T12:45:20;4.07;;;2.50;;
11827;SDS011;5971;49.646;8.568;2024-03-02T12:48:26;4.35;;;2.97;;
11827;SDS011;5971;49.646;8.568;2024-03-02T12:51:27;3.42;;;2.53;;
11827;SDS011;5971;49.646;8.568;2024-03-02T12:54:29;3.10;;;1.83;;
11827;SDS011;5971;49.646;8.568;2024-03-02T12:57:31;3.58;;;2.40;;
11827;SDS011;5971;49.646;8.568;2024-03-02T13:00:32;2.25;;;1.25;;
11827;SDS011;5971;49.646;8.568;2024-03-02T13:03:39;2.65;;;1.38;;
11827;SDS011;5971;49.646;8.568;2024-03-02T13:06:40;2.35;;;1.80;;
11827;SDS011;5971;49.646;8.568;2024-03-02T13:09:42;3.10;;;2.28;;
11827;SDS011;5971;49.646;8.568;2024-03-02T13:12:43;3.13;;;1.80;;
11827;SDS011;5971;49.646;8.568;2024-03-02T13:15:45;3.10;;;1.48;;
11827;SDS011;5971;49.646;8.568;2024-03-02T13:18:48;2.42;;;1.48;;
11827;SDS011;5971;49.646;8.568;2024-03-02T13:21:50;3.20;;;1.70;;
11827;SDS011;5971;49.646;8.568;2024-03-02T13:24:53;2.30;;;1.42;;
11827;SDS011;5971;49.646;8.568;2024-03-02T13:27:57;2.45;;;1.40;;
11827;SDS011;5971;49.646;8.568;2024-03-02T13:30:59;3.22;;;2.05;;
11827;SDS011;5971;49.646;8.568;2024-03-02T13:34:04;3.60;;;2.22;;
11827;SDS011;5971;49.646;8.568;2024-03-02T13:37:05;3.55;;;2.00;;
11827;SDS011;5971;49.646;8.568;2024-03-02T13:40:07;3.17;;;1.90;;
11827;SDS011;5971;49.646;8.568;2024-03-02T13:43:14;4.53;;;1.85;;
11827;SDS011;5971;49.646;8.568;2024-03-02T13:46:15;3.40;;;2.00;;
11827;SDS011;5971;49.646;8.568;2024-03-02T13:49:17;2.47;;;1.63;;
11827;SDS011;5971;49.646;8.568;2024-03-02T13:52:18;2.80;;;1.60;;
11827;SDS011;5971;49.646;8.568;2024-03-02T13:55:19;3.45;;;2.17;;
11827;SDS011;5971;49.646;8.568;2024-03-02T13:58:21;3.42;;;1.90;;
11827;SDS011;5971;49.646;8.568;2024-03-02T14:01:22;3.03;;;1.75;;
11827;SDS011;5971;49.646;8.568;2024-03-02T14:04:24;2.90;;;1.80;;
11827;SDS011;5971;49.646;8.568;2024-03-02T14:07:25;2.90;;;1.48;;
11827;SDS011;5971;49.646;8.568;2024-03-02T14:10:29;2.33;;;1.30;;
11827;SDS011;5971;49.646;8.568;2024-03-02T14:13:30;3.22;;;1.50;;
11827;SDS011;5971;49.646;8.568;2024-03-02T14:16:32;2.40;;;1.30;;
11827;SDS011;5971;49.646;8.568;2024-03-02T14:19:33;3.22;;;1.92;;
11827;SDS011;5971;49.646;8.568;2024-03-02T14:22:37;3.85;;;2.03;;
11827;SDS011;5971;49.646;8.568;2024-03-02T14:25:39;2.70;;;1.50;;
11827;SDS011;5971;49.646;8.568;2024-03-02T14:28:40;3.72;;;1.90;;
11827;SDS011;5971;49.646;8.568;2024-03-02T14:31:51;3.40;;;1.85;;
11827;SDS011;5971;49.646;8.568;2024-03-02T14:34:53;3.15;;;1.50;;
11827;SDS011;5971;49.646;8.568;2024-03-02T14:37:54;3.58;;;1.90;;
11827;SDS011;5971;49.646;8.568;2024-03-02T14:40:56;3.05;;;1.70;;
11827;SDS011;5971;49.646;8.568;2024-03-02T14:43:58;2.90;;;2.00;;
11827;SDS011;5971;49.646;8.568;2024-03-02T14:47:00;2.55;;;1.67;;
11827;SDS011;5971;49.646;8.568;2024-03-02T14:50:01;2.63;;;1.52;;
11827;SDS011;5971;49.646;8.568;2024-03-02T14:53:07;2.95;;;1.92;;
11827;SDS011;5971;49.646;8.568;2024-03-02T14:56:09;2.45;;;1.30;;
11827;SDS011;5971;49.646;8.568;2024-03-02T14:59:10;2.78;;;1.80;;
11827;SDS011;5971;49.646;8.568;2024-03-02T15:02:12;2.22;;;1.20;;
11827;SDS011;5971;49.646;8.568;2024-03-02T15:05:14;3.30;;;2.08;;
11827;SDS011;5971;49.646;8.568;2024-03-02T15:08:15;2.80;;;1.60;;
11827;SDS011;5971;49.646;8.568;2024-03-02T15:11:17;3.00;;;1.77;;
11827;SDS011;5971;49.646;8.568;2024-03-02T15:14:19;2.70;;;1.55;;
11827;SDS011;5971;49.646;8.568;2024-03-02T15:17:20;3.72;;;1.50;;
11827;SDS011;5971;49.646;8.568;2024-03-02T15:20:21;2.20;;;1.65;;
11827;SDS011;5971;49.646;8.568;2024-03-02T15:23:23;2.25;;;1.10;;
11827;SDS011;5971;49.646;8.568;2024-03-02T15:26:25;2.33;;;1.10;;
11827;SDS011;5971;49.646;8.568;2024-03-02T15:29:26;2.63;;;1.40;;
11827;SDS011;5971;49.646;8.568;2024-03-02T15:32:30;2.28;;;1.10;;
11827;SDS011;5971;49.646;8.568;2024-03-02T15:35:32;1.83;;;1.10;;
11827;SDS011;5971;49.646;8.568;2024-03-02T15:38:34;2.53;;;1.10;;
11827;SDS011;5971;49.646;8.568;2024-03-02T15:41:45;2.17;;;1.00;;
11827;SDS011;5971;49.646;8.568;2024-03-02T15:44:46;2.13;;;1.00;;
11827;SDS011;5971;49.646;8.568;2024-03-02T15:47:47;2.17;;;1.10;;
11827;SDS011;5971;49.646;8.568;2024-03-02T15:50:49;2.45;;;1.23;;
11827;SDS011;5971;49.646;8.568;2024-03-02T15:53:53;2.67;;;1.27;;
11827;SDS011;5971;49.646;8.568;2024-03-02T15:56:55;2.55;;;1.30;;
11827;SDS011;5971;49.646;8.568;2024-03-02T15:59:57;2.63;;;1.48;;
11827;SDS011;5971;49.646;8.568;2024-03-02T16:02:58;3.08;;;1.63;;
11827;SDS011;5971;49.646;8.568;2024-03-02T16:05:59;5.15;;;2.17;;
11827;SDS011;5971;49.646;8.568;2024-03-02T16:09:01;4.00;;;2.63;;
11827;SDS011;5971;49.646;8.568;2024-03-02T16:12:02;4.80;;;1.75;;
11827;SDS011;5971;49.646;8.568;2024-03-02T16:15:04;3.65;;;1.85;;
11827;SDS011;5971;49.646;8.568;2024-03-02T16:18:06;4.03;;;1.52;;
11827;SDS011;5971;49.646;8.568;2024-03-02T16:21:08;2.78;;;1.15;;
11827;SDS011;5971;49.646;8.568;2024-03-02T16:24:09;4.20;;;2.10;;
11827;SDS011;5971;49.646;8.568;2024-03-02T16:27:11;5.15;;;2.00;;
11827;SDS011;5971;49.646;8.568;2024-03-02T16:30:12;2.53;;;1.42;;
11827;SDS011;5971;49.646;8.568;2024-03-02T16:33:13;7.32;;;1.50;;
11827;SDS011;5971;49.646;8.568;2024-03-02T16:36:15;4.53;;;2.75;;
11827;SDS011;5971;49.646;8.568;2024-03-02T16:39:16;6.53;;;4.43;;
11827;SDS011;5971;49.646;8.568;2024-03-02T16:42:18;9.95;;;5.95;;
11827;SDS011;5971;49.646;8.568;2024-03-02T16:45:21;20.90;;;12.25;;
11827;SDS011;5971;49.646;8.568;2024-03-02T16:48:22;14.70;;;9.95;;
11827;SDS011;5971;49.646;8.568;2024-03-02T16:51:23;10.65;;;6.85;;
11827;SDS011;5971;49.646;8.568;2024-03-02T16:54:26;6.47;;;4.57;;
11827;SDS011;5971;49.646;8.568;2024-03-02T16:57:27;6.13;;;4.55;;
11827;SDS011;5971;49.646;8.568;2024-03-02T17:00:29;6.00;;;4.47;;
11827;SDS011;5971;49.646;8.568;2024-03-02T17:03:31;3.97;;;2.58;;
11827;SDS011;5971;49.646;8.568;2024-03-02T17:06:32;6.45;;;3.72;;
11827;SDS011;5971;49.646;8.568;2024-03-02T17:09:34;6.43;;;3.53;;
11827;SDS011;5971;49.646;8.568;2024-03-02T17:12:35;5.13;;;2.30;;
11827;SDS011;5971;49.646;8.568;2024-03-02T17:15:36;5.03;;;2.63;;
11827;SDS011;5971;49.646;8.568;2024-03-02T17:18:38;10.00;;;5.05;;
11827;SDS011;5971;49.646;8.568;2024-03-02T17:21:39;9.82;;;5.82;;
11827;SDS011;5971;49.646;8.568;2024-03-02T17:24:41;11.75;;;5.90;;
11827;SDS011;5971;49.646;8.568;2024-03-02T17:27:42;14.30;;;6.90;;
11827;SDS011;5971;49.646;8.568;2024-03-02T17:30:43;9.93;;;5.35;;
11827;SDS011;5971;49.646;8.568;2024-03-02T17:33:45;9.48;;;5.80;;
11827;SDS011;5971;49.646;8.568;2024-03-02T17:36:46;9.50;;;3.80;;
11827;SDS011;5971;49.646;8.568;2024-03-02T17:39:48;6.57;;;3.83;;
11827;SDS011;5971;49.646;8.568;2024-03-02T17:42:49;7.57;;;4.45;;
11827;SDS011;5971;49.646;8.568;2024-03-02T17:45:51;10.48;;;5.47;;
11827;SDS011;5971;49.646;8.568;2024-03-02T17:48:52;9.88;;;6.47;;
11827;SDS011;5971;49.646;8.568;2024-03-02T17:51:54;11.15;;;6.90;;
11827;SDS011;5971;49.646;8.568;2024-03-02T17:54:55;10.18;;;7.03;;
11827;SDS011;5971;49.646;8.568;2024-03-02T17:57:57;11.77;;;7.30;;
11827;SDS011;5971;49.646;8.568;2024-03-02T18:00:58;10.05;;;5.47;;
11827;SDS011;5971;49.646;8.568;2024-03-02T18:04:00;7.75;;;5.75;;
11827;SDS011;5971;49.646;8.568;2024-03-02T18:07:03;7.20;;;5.68;;
11827;SDS011;5971;49.646;8.568;2024-03-02T18:10:05;5.88;;;3.42;;
11827;SDS011;5971;49.646;8.568;2024-03-02T18:13:07;5.05;;;2.80;;
11827;SDS011;5971;49.646;8.568;2024-03-02T18:16:08;4.45;;;2.33;;
11827;SDS011;5971;49.646;8.568;2024-03-02T18:22:14;4.28;;;2.33;;
11827;SDS011;5971;49.646;8.568;2024-03-02T18:25:16;6.13;;;3.42;;
11827;SDS011;5971;49.646;8.568;2024-03-02T18:28:17;3.95;;;2.00;;